Time;durP1;ratioP1;P1;durP2;ratioP2;P2;SDS_P1;SDS_P2;PMS_P1;PMS_P2;Temp;Humidity;BMP_temperature;BMP_pressure;BME280_temperature;BME280_humidity;BME280_pressure;Samples;Min_cycle;Max_cycle;Signal;HPM_P1;HPM_P2
2021/10/13 00:04:11;;;;;;;18.70;16.20;;;;;;;6.22;86.00;100102.34;229714;1197;138910;-76
2021/10/13 00:09:13;;;;;;;16.30;13.80;;;;;;;6.27;86.31;100110.45;229610;1195;139327;-76
2021/10/13 00:14:15;;;;;;;16.90;13.70;;;;;;;6.35;85.68;100115.33;230007;1196;139384;-77
2021/10/13 00:19:16;;;;;;;16.10;14.20;;;;;;;6.35;86.03;100111.48;229868;1196;139239;-75
2021/10/13 00:24:18;;;;;;;19.00;13.90;;;;;;;6.34;85.80;100103.34;229939;1196;138536;-75
2021/10/13 00:29:21;;;;;;;14.00;12.10;;;;;;;6.27;86.08;100103.59;229317;1197;139171;-77
2021/10/13 00:34:22;;;;;;;16.80;13.10;;;;;;;6.34;85.78;100107.93;230214;1196;139450;-80
2021/10/13 00:39:24;;;;;;;13.30;11.90;;;;;;;6.27;85.05;100109.98;230570;1194;138833;-79
2021/10/13 00:44:26;;;;;;;15.30;13.20;;;;;;;6.21;85.68;100123.98;230546;1196;138613;-76
2021/10/13 00:49:27;;;;;;;15.30;13.40;;;;;;;6.14;85.44;100126.66;229803;1196;139443;-75
2021/10/13 00:54:30;;;;;;;14.40;11.50;;;;;;;5.97;86.06;100123.14;230011;1187;138390;-76
2021/10/13 00:59:32;;;;;;;16.20;14.40;;;;;;;5.88;85.76;100129.12;230381;1196;138775;-75
2021/10/13 01:05:11;;;;;;;17.70;14.50;;;;;;;5.73;86.30;100138.65;230178;1196;138716;-75
2021/10/13 01:10:55;;;;;;;17.10;13.90;;;;;;;5.63;86.48;100136.32;230196;1197;139087;-74
2021/10/13 01:16:17;;;;;;;16.60;13.30;;;;;;;5.62;86.91;100142.96;230619;1195;138905;-75
2021/10/13 01:21:46;;;;;;;16.60;12.70;;;;;;;5.51;86.58;100149.21;230035;1194;138529;-74
2021/10/13 01:26:54;;;;;;;17.00;13.00;;;;;;;5.25;87.19;100146.13;230414;1196;138454;-76
2021/10/13 01:32:10;;;;;;;17.60;14.60;;;;;;;5.32;87.95;100146.00;229347;1196;139409;-76
2021/10/13 01:37:19;;;;;;;17.80;15.40;;;;;;;5.32;87.54;100149.52;229792;1196;139323;-75
2021/10/13 01:42:22;;;;;;;20.00;15.50;;;;;;;5.20;87.48;100157.14;230554;1196;139554;-76
2021/10/13 01:47:26;;;;;;;19.30;15.60;;;;;;;5.17;87.76;100157.58;230097;1195;138189;-75
2021/10/13 01:52:29;;;;;;;20.20;17.00;;;;;;;5.15;87.80;100159.59;229745;1196;138502;-76
2021/10/13 01:57:32;;;;;;;16.40;13.50;;;;;;;5.18;87.91;100155.37;230596;1196;139192;-77
2021/10/13 02:02:35;;;;;;;18.20;14.20;;;;;;;5.20;87.81;100159.05;230468;1195;139189;-76
2021/10/13 02:07:39;;;;;;;16.60;14.00;;;;;;;5.26;87.72;100161.20;229818;1196;138439;-76
2021/10/13 02:12:46;;;;;;;17.10;14.00;;;;;;;5.24;87.46;100165.95;229608;1196;138431;-76
2021/10/13 02:17:51;;;;;;;18.50;15.20;;;;;;;5.14;87.74;100174.00;230367;1196;138419;-75
2021/10/13 02:22:57;;;;;;;17.00;14.10;;;;;;;5.08;88.30;100182.35;230667;1196;138345;-77
2021/10/13 02:28:06;;;;;;;17.40;15.00;;;;;;;5.10;88.13;100187.45;229978;1195;139405;-75
2021/10/13 02:33:08;;;;;;;16.70;14.30;;;;;;;5.22;87.94;100192.05;229852;1195;138827;-73
2021/10/13 02:38:10;;;;;;;18.70;14.50;;;;;;;5.37;87.79;100198.05;229773;1196;138650;-75
2021/10/13 02:43:12;;;;;;;18.60;15.80;;;;;;;5.39;86.97;100201.66;229731;1196;138224;-73
2021/10/13 02:48:20;;;;;;;20.00;17.80;;;;;;;5.23;87.15;100199.52;229477;1197;139592;-74
2021/10/13 02:53:34;;;;;;;22.10;18.20;;;;;;;5.29;87.74;100201.80;229685;1195;139328;-74
2021/10/13 02:59:00;;;;;;;21.40;17.10;;;;;;;5.35;87.17;100206.75;229692;1195;139066;-74
2021/10/13 03:04:04;;;;;;;18.20;16.10;;;;;;;5.30;87.22;100207.19;229943;1196;138362;-78
2021/10/13 03:09:08;;;;;;;19.30;16.40;;;;;;;5.24;87.56;100216.79;229813;1195;139185;-76
2021/10/13 03:14:10;;;;;;;18.20;15.90;;;;;;;5.36;87.73;100224.48;229988;1195;139899;-75
2021/10/13 03:19:12;;;;;;;17.80;15.80;;;;;;;5.48;86.97;100216.20;230111;1196;139673;-72
2021/10/13 03:24:16;;;;;;;17.20;14.10;;;;;;;5.58;86.54;100220.05;229915;1196;139051;-77
2021/10/13 03:29:18;;;;;;;17.80;15.20;;;;;;;5.63;85.85;100220.50;229624;1196;138483;-75
2021/10/13 03:34:19;;;;;;;21.00;17.70;;;;;;;5.59;85.62;100222.10;228801;1196;138864;-72
2021/10/13 03:39:21;;;;;;;19.60;15.90;;;;;;;5.61;85.96;100228.77;229291;1195;140928;-72
2021/10/13 03:44:22;;;;;;;18.30;15.40;;;;;;;5.61;85.96;100225.73;229552;1197;140208;-73
2021/10/13 03:49:24;;;;;;;15.20;13.60;;;;;;;5.67;85.73;100234.01;229179;1196;140204;-75
2021/10/13 03:54:26;;;;;;;21.60;17.10;;;;;;;5.65;85.69;100232.08;230070;1196;138282;-75
2021/10/13 03:59:28;;;;;;;25.00;18.50;;;;;;;5.69;86.03;100240.88;229274;1196;139717;-75
2021/10/13 04:04:30;;;;;;;21.40;16.40;;;;;;;5.60;86.62;100248.94;230064;1196;138346;-74
2021/10/13 04:09:31;;;;;;;20.70;17.20;;;;;;;5.54;87.79;100254.16;230015;1195;139319;-75
2021/10/13 04:14:33;;;;;;;23.00;17.90;;;;;;;5.73;87.64;100247.38;229108;1196;138746;-76
2021/10/13 04:19:35;;;;;;;23.20;18.30;;;;;;;5.77;86.70;100249.30;229925;1187;139418;-76
2021/10/13 04:24:36;;;;;;;30.50;22.10;;;;;;;5.76;86.73;100256.67;230223;1195;138358;-72
2021/10/13 04:29:38;;;;;;;26.10;19.50;;;;;;;5.71;86.67;100257.10;229532;1197;138291;-73
2021/10/13 04:34:40;;;;;;;27.20;19.80;;;;;;;5.66;87.49;100259.60;229832;1196;139381;-70
2021/10/13 04:39:42;;;;;;;29.20;21.10;;;;;;;5.74;87.43;100264.79;229852;1196;140882;-74
2021/10/13 04:44:43;;;;;;;30.60;22.80;;;;;;;5.77;87.32;100265.42;229604;1196;138915;-76
2021/10/13 04:49:45;;;;;;;32.00;22.30;;;;;;;5.76;87.48;100270.18;229971;1196;138848;-71
2021/10/13 04:54:47;;;;;;;34.80;23.60;;;;;;;5.67;88.27;100276.48;229529;1199;139108;-76
2021/10/13 04:59:50;;;;;;;36.90;23.30;;;;;;;5.65;88.86;100280.52;230588;1196;139009;-75
2021/10/13 05:04:52;;;;;;;36.40;23.80;;;;;;;5.69;88.79;100283.87;230273;1196;139949;-76
2021/10/13 05:09:53;;;;;;;31.40;23.00;;;;;;;5.74;88.80;100288.20;230452;1195;139987;-76
2021/10/13 05:14:55;;;;;;;36.40;25.20;;;;;;;5.77;88.73;100297.90;230452;1180;138599;-74
2021/10/13 05:19:57;;;;;;;41.80;27.10;;;;;;;5.78;89.03;100298.04;230539;1195;138571;-75
2021/10/13 05:24:58;;;;;;;40.80;25.50;;;;;;;5.75;89.47;100309.98;230309;1196;138524;-76
2021/10/13 05:30:02;;;;;;;35.70;25.30;;;;;;;5.81;89.52;100321.67;230471;1195;139047;-75
2021/10/13 05:35:04;;;;;;;37.10;24.80;;;;;;;5.85;89.56;100326.10;230555;1196;138908;-77
2021/10/13 05:40:06;;;;;;;36.40;26.30;;;;;;;5.95;89.35;100333.35;230535;1195;139311;-76
2021/10/13 05:45:08;;;;;;;36.60;26.70;;;;;;;6.02;89.02;100341.48;230532;1195;138628;-74
2021/10/13 05:50:10;;;;;;;41.40;27.00;;;;;;;6.03;88.59;100351.77;230474;1195;138237;-76
2021/10/13 05:55:12;;;;;;;31.10;24.00;;;;;;;5.98;89.01;100358.26;230722;1196;139310;-74
2021/10/13 06:00:14;;;;;;;32.10;23.60;;;;;;;6.09;89.15;100368.91;230562;1196;140259;-76
2021/10/13 06:05:16;;;;;;;29.50;23.20;;;;;;;6.22;88.35;100375.95;230318;1196;139635;-76
2021/10/13 06:10:17;;;;;;;32.20;22.90;;;;;;;6.21;87.97;100388.58;230479;1196;138758;-76
2021/10/13 06:15:20;;;;;;;28.50;24.20;;;;;;;6.16;88.16;100396.58;229553;1197;138592;-75
2021/10/13 06:20:22;;;;;;;27.90;22.70;;;;;;;6.20;88.16;100404.47;230070;1195;138944;-76
2021/10/13 06:25:23;;;;;;;28.60;22.10;;;;;;;6.28;88.28;100410.25;229733;1196;139125;-76
2021/10/13 06:30:25;;;;;;;29.10;23.60;;;;;;;6.36;87.80;100418.89;230522;1196;139902;-75
2021/10/13 06:35:31;;;;;;;32.10;24.90;;;;;;;6.36;87.72;100424.30;232039;1196;139277;-76
2021/10/13 06:40:32;;;;;;;28.10;22.00;;;;;;;6.43;87.66;100428.99;230704;1196;138321;-73
2021/10/13 06:45:35;;;;;;;28.70;22.60;;;;;;;6.39;87.62;100435.21;230144;1196;138817;-76
2021/10/13 06:50:37;;;;;;;23.90;21.10;;;;;;;6.40;87.91;100438.34;230541;1196;139051;-76
2021/10/13 06:55:39;;;;;;;24.40;21.80;;;;;;;6.46;87.46;100444.30;230468;1196;139858;-75
2021/10/13 07:00:41;;;;;;;22.50;20.20;;;;;;;6.51;86.96;100449.63;229708;1197;139099;-76
2021/10/13 07:05:43;;;;;;;23.60;19.90;;;;;;;6.54;86.42;100453.62;230323;1196;139248;-74
2021/10/13 07:10:45;;;;;;;18.50;16.60;;;;;;;6.56;86.54;100453.81;230261;1195;139656;-77
2021/10/13 07:15:47;;;;;;;17.60;15.80;;;;;;;6.56;86.31;100458.90;230487;1196;140977;-75
2021/10/13 07:20:48;;;;;;;16.20;14.10;;;;;;;6.58;86.17;100466.80;230420;1196;138413;-74
2021/10/13 07:25:50;;;;;;;13.10;11.90;;;;;;;6.57;85.47;100471.88;229809;1196;138618;-75
2021/10/13 07:30:52;;;;;;;11.30;10.30;;;;;;;6.40;85.39;100476.67;230269;1196;139324;-74
2021/10/13 07:35:53;;;;;;;11.50;10.30;;;;;;;6.39;85.40;100483.59;230265;1196;139204;-76
2021/10/13 07:40:55;;;;;;;14.00;12.40;;;;;;;6.47;84.39;100485.70;230020;1195;138418;-76
2021/10/13 07:45:57;;;;;;;9.70;8.70;;;;;;;6.52;83.77;100493.88;230059;1196;138166;-76
2021/10/13 07:51:00;;;;;;;7.60;6.90;;;;;;;6.58;83.36;100492.67;229954;1196;138917;-77
2021/10/13 07:56:02;;;;;;;9.90;8.80;;;;;;;6.77;82.98;100489.59;230342;1196;138954;-74
2021/10/13 08:01:03;;;;;;;12.10;11.00;;;;;;;6.84;82.84;100497.77;229936;1196;138988;-77
2021/10/13 08:06:06;;;;;;;11.90;10.80;;;;;;;6.92;83.14;100497.23;230428;1196;138205;-74
2021/10/13 08:11:07;;;;;;;11.70;10.60;;;;;;;6.99;82.60;100501.02;230420;1187;139322;-76
2021/10/13 08:16:09;;;;;;;9.90;9.00;;;;;;;7.02;82.78;100501.30;230357;1180;138936;-76
2021/10/13 08:21:11;;;;;;;12.10;10.50;;;;;;;7.21;82.64;100500.82;230462;1196;139025;-76
2021/10/13 08:26:13;;;;;;;12.00;10.50;;;;;;;7.19;81.79;100502.19;229725;1195;138945;-76
2021/10/13 08:31:15;;;;;;;7.70;7.10;;;;;;;7.21;81.21;100500.33;230348;1196;139147;-75
2021/10/13 08:36:17;;;;;;;5.70;5.20;;;;;;;7.22;80.58;100498.62;230319;1196;138691;-74
2021/10/13 08:41:18;;;;;;;8.70;7.90;;;;;;;7.30;78.44;100501.65;230320;1196;138265;-75
2021/10/13 08:46:20;;;;;;;9.10;8.20;;;;;;;7.23;78.68;100501.00;230356;1187;138309;-75
2021/10/13 08:51:22;;;;;;;8.80;8.00;;;;;;;7.27;79.48;100508.71;230419;1195;138527;-74
2021/10/13 08:56:24;;;;;;;11.20;10.20;;;;;;;7.37;79.20;100513.51;230241;1195;138605;-75
2021/10/13 09:01:25;;;;;;;10.40;9.50;;;;;;;7.69;78.84;100523.20;230406;1196;139300;-75
2021/10/13 09:06:30;;;;;;;10.40;9.50;;;;;;;7.84;77.67;100527.37;229568;1195;138624;-75
2021/10/13 09:11:38;;;;;;;9.80;8.90;;;;;;;7.87;77.56;100530.92;229574;1199;139148;-74
2021/10/13 09:16:52;;;;;;;8.90;8.00;;;;;;;7.81;77.48;100533.55;230154;1196;139098;-76
2021/10/13 09:21:58;;;;;;;8.70;7.60;;;;;;;7.74;77.44;100531.55;229637;1196;138353;-72
2021/10/13 09:27:24;;;;;;;8.30;7.60;;;;;;;8.04;77.03;100525.96;230398;1196;138637;-76
2021/10/13 09:32:26;;;;;;;8.00;7.30;;;;;;;8.26;75.34;100534.43;230280;1196;138163;-75
2021/10/13 09:37:48;;;;;;;6.50;5.90;;;;;;;8.19;74.80;100536.60;229735;1196;138297;-75
2021/10/13 09:42:52;;;;;;;9.00;8.10;;;;;;;8.28;74.26;100535.77;229495;1196;138594;-74
2021/10/13 09:48:04;;;;;;;10.80;9.70;;;;;;;8.34;74.00;100537.92;229548;1196;138349;-75
2021/10/13 09:53:16;;;;;;;8.20;7.50;;;;;;;8.42;73.15;100540.71;231159;1196;138836;-75
2021/10/13 09:58:24;;;;;;;10.90;9.90;;;;;;;8.65;72.40;100542.91;230413;1195;138558;-75
2021/10/13 10:03:26;;;;;;;10.30;9.40;;;;;;;8.68;72.48;100548.08;230737;1195;139050;-76
2021/10/13 10:08:28;;;;;;;9.30;8.50;;;;;;;8.54;71.78;100549.30;230219;1196;138245;-77
2021/10/13 10:13:34;;;;;;;10.20;9.30;;;;;;;8.38;73.06;100550.92;230510;1196;138506;-75
2021/10/13 10:18:39;;;;;;;13.10;12.00;;;;;;;8.68;72.37;100551.96;230444;1196;139467;-76
2021/10/13 10:23:41;;;;;;;11.20;10.30;;;;;;;9.00;70.62;100550.12;230606;1196;139195;-77
2021/10/13 10:28:52;;;;;;;11.20;10.10;;;;;;;9.21;68.36;100552.63;230386;1196;139109;-76
2021/10/13 10:34:02;;;;;;;11.50;10.40;;;;;;;9.35;67.15;100553.60;230458;1196;139474;-78
2021/10/13 10:39:06;;;;;;;8.80;8.10;;;;;;;9.13;67.52;100555.61;230245;1196;138468;-75
2021/10/13 10:44:26;;;;;;;6.20;5.60;;;;;;;9.42;66.34;100554.89;230470;1196;138631;-75
2021/10/13 10:49:46;;;;;;;5.50;5.00;;;;;;;9.60;65.14;100553.91;230343;1195;138385;-75
2021/10/13 10:55:01;;;;;;;5.70;4.10;;;;;;;9.22;66.52;100564.64;230305;1196;138616;-76
2021/10/13 11:00:23;;;;;;;;;;;;;;;9.05;67.33;100572.71;230529;1196;138303;-76
2021/10/13 11:05:26;;;;;;;6.50;4.30;;;;;;;8.91;68.08;100575.55;229961;1196;125069;-76
2021/10/13 11:10:27;;;;;;;5.10;4.60;;;;;;;8.98;68.58;100576.83;230488;1197;138704;-75
2021/10/13 11:15:31;;;;;;;3.10;2.80;;;;;;;9.00;68.53;100579.71;230198;1196;138582;-75
2021/10/13 11:20:33;;;;;;;2.70;2.20;;;;;;;8.98;68.28;100574.39;230000;1196;139018;-71
2021/10/13 11:25:36;;;;;;;3.50;2.30;;;;;;;8.95;67.70;100579.59;229882;1197;139001;-75
2021/10/13 11:30:40;;;;;;;2.70;2.40;;;;;;;8.95;67.45;100577.48;230385;1196;139231;-74
2021/10/13 11:35:44;;;;;;;1.90;1.80;;;;;;;8.93;67.24;100582.36;230083;1195;138427;-75
2021/10/13 11:40:47;;;;;;;2.50;2.30;;;;;;;8.96;66.73;100583.14;230394;1195;137734;-76
2021/10/13 11:45:51;;;;;;;1.80;1.60;;;;;;;8.92;66.72;100581.62;230485;1195;139011;-77
2021/10/13 11:50:55;;;;;;;2.10;1.90;;;;;;;8.94;66.42;100584.27;230341;1196;138472;-76
2021/10/13 11:55:57;;;;;;;1.50;1.40;;;;;;;8.87;66.62;100582.23;230099;1199;137880;-74
2021/10/13 12:00:58;;;;;;;3.50;1.50;;;;;;;8.83;67.66;100583.96;230475;1195;138493;-75
2021/10/13 12:06:02;;;;;;;1.80;1.20;;;;;;;8.80;67.33;100592.31;230401;1200;138704;-75
2021/10/13 12:11:12;;;;;;;4.10;2.10;;;;;;;8.73;67.80;100589.77;230319;1195;138671;-75
2021/10/13 12:16:24;;;;;;;3.00;2.40;;;;;;;8.75;68.51;100591.25;230137;1195;137956;-76
2021/10/13 12:21:29;;;;;;;1.80;1.60;;;;;;;8.79;69.40;100596.46;230455;1195;137893;-74
2021/10/13 12:26:39;;;;;;;;;;;;;;;8.87;68.54;100595.95;230493;1196;138425;-76
2021/10/13 12:31:42;;;;;;;3.40;1.40;;;;;;;9.00;68.19;100595.99;230407;1195;125227;-75
2021/10/13 12:36:54;;;;;;;1.80;1.40;;;;;;;8.94;67.92;100597.73;230428;1196;138497;-76
2021/10/13 12:42:09;;;;;;;3.50;1.40;;;;;;;8.90;68.00;100596.36;230393;1196;138122;-76
2021/10/13 12:47:19;;;;;;;2.60;2.40;;;;;;;8.92;68.63;100603.25;229814;1197;138174;-78
2021/10/13 12:52:21;;;;;;;4.60;2.80;;;;;;;8.71;71.28;100614.42;230415;1196;138008;-75
2021/10/13 12:57:28;;;;;;;3.60;3.30;;;;;;;8.31;77.34;100628.60;230505;1187;138420;-75
2021/10/13 13:02:30;;;;;;;4.30;2.60;;;;;;;8.03;81.16;100636.02;230484;1195;138965;-75
2021/10/13 13:07:32;;;;;;;4.00;2.70;;;;;;;7.95;82.98;100635.86;230650;1196;138677;-75
2021/10/13 13:12:33;;;;;;;5.40;2.60;;;;;;;8.03;83.46;100638.83;230928;1196;138918;-78
2021/10/13 13:17:35;;;;;;;3.50;2.40;;;;;;;8.00;83.43;100636.52;230402;1196;139020;-73
2021/10/13 13:22:38;;;;;;;4.70;2.80;;;;;;;8.07;82.85;100637.67;230563;1196;138869;-75
2021/10/13 13:27:39;;;;;;;2.50;2.30;;;;;;;8.10;82.87;100638.96;230747;1199;138026;-75
2021/10/13 13:32:41;;;;;;;3.20;2.70;;;;;;;8.10;82.86;100643.75;230582;1195;138043;-76
2021/10/13 13:37:43;;;;;;;3.40;3.10;;;;;;;8.13;83.17;100646.52;230296;1180;139152;-76
2021/10/13 13:42:46;;;;;;;5.10;3.60;;;;;;;8.15;83.45;100652.45;230130;1196;139285;-75
2021/10/13 13:47:48;;;;;;;3.50;3.00;;;;;;;8.22;83.72;100656.95;230982;1195;139604;-75
2021/10/13 13:52:51;;;;;;;3.30;3.00;;;;;;;8.34;82.19;100660.95;233145;1195;137954;-75
2021/10/13 13:57:53;;;;;;;4.00;2.60;;;;;;;8.37;81.95;100660.05;235612;1195;137300;-76
2021/10/13 14:02:55;;;;;;;2.80;2.40;;;;;;;8.38;81.21;100658.59;235230;1195;138646;-73
2021/10/13 14:07:56;;;;;;;2.70;2.50;;;;;;;8.33;80.99;100655.98;234224;1196;139234;-72
2021/10/13 14:12:58;;;;;;;4.40;4.00;;;;;;;8.39;80.81;100660.07;230313;1196;140499;-75
2021/10/13 14:18:00;;;;;;;3.70;3.40;;;;;;;8.43;80.90;100665.11;230474;1196;138583;-75
2021/10/13 14:23:02;;;;;;;3.60;3.30;;;;;;;8.49;81.34;100667.76;230587;1196;139006;-75
2021/10/13 14:28:04;;;;;;;4.30;3.30;;;;;;;8.77;80.77;100669.25;230171;1196;138480;-75
2021/10/13 14:33:06;;;;;;;5.30;4.40;;;;;;;9.01;79.58;100675.86;229922;1197;138110;-76
2021/10/13 14:38:08;;;;;;;5.20;4.30;;;;;;;8.93;79.01;100684.66;230539;1195;137881;-73
2021/10/13 14:43:10;;;;;;;5.20;4.00;;;;;;;8.83;78.48;100685.89;230257;1196;138276;-75
2021/10/13 14:48:11;;;;;;;3.70;3.40;;;;;;;8.80;78.22;100689.54;230514;1195;138614;-74
2021/10/13 14:53:13;;;;;;;4.00;3.50;;;;;;;8.91;78.07;100694.90;230231;1195;139100;-75
2021/10/13 14:58:15;;;;;;;6.00;4.20;;;;;;;8.99;77.29;100698.06;230699;1195;138131;-75
2021/10/13 15:03:17;;;;;;;4.70;4.30;;;;;;;8.92;77.66;100704.42;230608;1195;138185;-77
2021/10/13 15:08:19;;;;;;;6.50;4.70;;;;;;;8.78;77.38;100706.77;230727;1196;137885;-75
2021/10/13 15:13:21;;;;;;;5.30;4.30;;;;;;;8.57;79.22;100707.52;230604;1195;138971;-74
2021/10/13 15:18:23;;;;;;;6.10;4.90;;;;;;;8.52;80.10;100709.48;230249;1196;138451;-73
2021/10/13 15:23:25;;;;;;;5.80;5.20;;;;;;;8.55;79.83;100712.77;229715;1196;140618;-74
2021/10/13 15:28:27;;;;;;;7.50;5.50;;;;;;;8.57;78.72;100721.19;230511;1196;137891;-75
2021/10/13 15:33:28;;;;;;;5.30;4.80;;;;;;;8.55;78.62;100724.85;229582;1196;138551;-72
2021/10/13 15:38:30;;;;;;;4.70;4.20;;;;;;;8.53;78.74;100734.86;229616;1197;138839;-73
2021/10/13 15:43:33;;;;;;;5.40;4.90;;;;;;;8.52;78.61;100744.92;229112;1197;138794;-74
2021/10/13 15:48:34;;;;;;;4.90;4.50;;;;;;;8.49;78.86;100748.55;229739;1196;138741;-72
2021/10/13 15:53:37;;;;;;;5.70;5.10;;;;;;;8.36;79.26;100756.73;229727;1196;137778;-74
2021/10/13 15:58:38;;;;;;;6.90;6.20;;;;;;;8.22;80.35;100762.05;229453;1200;138323;-71
2021/10/13 16:03:40;;;;;;;16.40;14.80;;;;;;;8.09;81.48;100778.39;230063;1196;138502;-74
2021/10/13 16:08:42;;;;;;;10.70;9.80;;;;;;;7.95;82.88;100785.91;229559;1202;138989;-74
2021/10/13 16:13:43;;;;;;;6.90;6.20;;;;;;;7.79;83.35;100788.08;229442;1197;138960;-74
2021/10/13 16:18:45;;;;;;;7.70;6.90;;;;;;;7.76;83.80;100791.89;230079;1196;138282;-76
2021/10/13 16:23:50;;;;;;;11.60;9.30;;;;;;;7.70;83.48;100797.11;229921;1196;139147;-73
2021/10/13 16:28:51;;;;;;;10.60;9.50;;;;;;;7.81;81.84;100800.72;229809;1196;138767;-74
2021/10/13 16:33:53;;;;;;;9.70;8.50;;;;;;;7.79;81.44;100801.59;230063;1196;139769;-74
2021/10/13 16:38:55;;;;;;;12.00;9.40;;;;;;;7.67;81.53;100810.25;234170;1195;138949;-71
2021/10/13 16:43:57;;;;;;;14.10;11.40;;;;;;;7.58;80.79;100814.88;229196;1196;139137;-73
2021/10/13 16:48:58;;;;;;;13.20;10.00;;;;;;;7.61;80.20;100823.77;229562;1196;138656;-75
2021/10/13 16:54:00;;;;;;;13.10;11.80;;;;;;;7.53;80.33;100830.66;229591;1196;139205;-74
2021/10/13 16:59:02;;;;;;;14.30;11.90;;;;;;;7.49;80.39;100829.78;229012;1197;138665;-74
2021/10/13 17:04:04;;;;;;;21.70;15.90;;;;;;;7.45;80.83;100833.13;229092;1196;139580;-76
2021/10/13 17:09:06;;;;;;;16.10;14.10;;;;;;;7.45;80.70;100833.11;229049;1197;139220;-75
2021/10/13 17:14:09;;;;;;;14.90;13.20;;;;;;;7.41;81.03;100827.98;228961;1196;138107;-74
2021/10/13 17:19:11;;;;;;;14.20;12.70;;;;;;;7.35;81.03;100832.46;229101;1200;138066;-74
2021/10/13 17:24:14;;;;;;;14.30;11.80;;;;;;;7.25;81.31;100833.85;229995;1196;138557;-75
2021/10/13 17:29:15;;;;;;;12.20;10.20;;;;;;;7.21;81.16;100837.85;230267;1197;138439;-72
2021/10/13 17:34:17;;;;;;;13.50;11.30;;;;;;;7.22;81.02;100836.38;230303;1196;138807;-74
2021/10/13 17:39:19;;;;;;;15.40;12.90;;;;;;;7.20;81.08;100843.88;229165;1196;139077;-72
2021/10/13 17:44:21;;;;;;;14.80;12.20;;;;;;;7.13;81.37;100847.56;229023;1196;138563;-73
2021/10/13 17:49:23;;;;;;;12.70;11.20;;;;;;;7.03;81.33;100851.45;229953;1196;138152;-74
2021/10/13 17:54:24;;;;;;;17.20;14.00;;;;;;;6.97;81.75;100857.01;230001;1196;139778;-75
2021/10/13 17:59:26;;;;;;;18.10;12.90;;;;;;;7.03;81.41;100858.48;230708;1196;139757;-75
2021/10/13 18:04:28;;;;;;;19.30;15.40;;;;;;;7.00;81.21;100859.41;230258;1196;138773;-73
2021/10/13 18:09:30;;;;;;;19.60;14.50;;;;;;;6.91;81.09;100867.27;230249;1197;139207;-78
2021/10/13 18:14:32;;;;;;;16.60;12.90;;;;;;;6.82;81.34;100873.38;230887;1195;139167;-73
2021/10/13 18:19:35;;;;;;;17.60;13.40;;;;;;;6.78;81.34;100876.55;230211;1195;139476;-74
2021/10/13 18:24:37;;;;;;;17.00;14.00;;;;;;;6.77;81.28;100881.68;230005;1195;138512;-78
2021/10/13 18:29:39;;;;;;;23.20;15.80;;;;;;;6.70;81.52;100880.83;230576;1196;140362;-74
2021/10/13 18:34:40;;;;;;;17.60;13.20;;;;;;;6.64;81.51;100885.27;230377;1196;138756;-73
2021/10/13 18:39:42;;;;;;;15.10;12.80;;;;;;;6.61;81.70;100889.48;230374;1196;140528;-76
2021/10/13 18:44:44;;;;;;;14.50;12.20;;;;;;;6.68;81.58;100899.69;230372;1195;139029;-75
2021/10/13 18:49:46;;;;;;;14.20;12.30;;;;;;;6.71;81.29;100906.32;229424;1196;138695;-75
2021/10/13 18:54:51;;;;;;;15.00;11.20;;;;;;;6.57;81.51;100912.61;229468;1196;138201;-75
2021/10/13 18:59:53;;;;;;;12.30;9.60;;;;;;;6.50;81.85;100917.85;230025;1196;138457;-76
2021/10/13 19:04:56;;;;;;;11.90;9.30;;;;;;;6.51;81.94;100924.45;230402;1196;139118;-72
2021/10/13 19:09:57;;;;;;;11.10;8.90;;;;;;;6.59;81.59;100932.02;230267;1195;139642;-75
2021/10/13 19:14:59;;;;;;;11.40;9.20;;;;;;;6.53;81.74;100935.63;230481;1197;138574;-75
2021/10/13 19:20:01;;;;;;;14.10;10.20;;;;;;;6.37;81.96;100941.89;230417;1195;139154;-78
2021/10/13 19:25:04;;;;;;;15.40;11.70;;;;;;;6.29;82.10;100938.14;230435;1195;138114;-76
2021/10/13 19:30:06;;;;;;;14.80;12.50;;;;;;;5.94;82.49;100938.01;230033;1196;138234;-75
2021/10/13 19:35:08;;;;;;;16.80;12.40;;;;;;;5.92;83.69;100939.70;229797;1197;139143;-74
2021/10/13 19:40:10;;;;;;;15.60;12.30;;;;;;;6.09;83.51;100945.69;231067;1179;97736;-75
2021/10/13 19:45:12;;;;;;;17.20;14.00;;;;;;;6.15;83.16;100950.52;230377;1195;97711;-73
2021/10/13 19:50:14;;;;;;;23.80;16.20;;;;;;;6.12;82.89;100954.02;230544;1196;108531;-75
2021/10/13 19:55:16;;;;;;;22.70;16.40;;;;;;;6.10;82.79;100954.70;230315;1196;97681;-75
2021/10/13 20:00:18;;;;;;;19.60;14.80;;;;;;;5.97;83.13;100955.45;229840;1195;97704;-74
2021/10/13 20:05:20;;;;;;;20.20;16.30;;;;;;;5.92;83.37;100956.17;230722;1196;97599;-75
2021/10/13 20:10:23;;;;;;;19.00;14.80;;;;;;;5.84;83.29;100963.70;230343;1187;97598;-74
2021/10/13 20:15:25;;;;;;;19.00;15.20;;;;;;;5.79;83.47;100971.25;230208;1195;98041;-75
2021/10/13 20:20:26;;;;;;;17.00;13.70;;;;;;;5.69;83.84;100972.15;230824;1196;97690;-74
2021/10/13 20:25:28;;;;;;;20.60;14.40;;;;;;;5.69;83.97;100978.23;230207;1196;97680;-75
2021/10/13 20:30:30;;;;;;;18.50;14.20;;;;;;;5.68;83.90;100981.48;230807;1195;109367;-75
2021/10/13 20:35:33;;;;;;;15.80;13.60;;;;;;;5.71;83.58;100984.23;230930;1195;97640;-74
2021/10/13 20:40:35;;;;;;;17.70;13.60;;;;;;;5.63;83.80;100987.34;230549;1197;97662;-73
2021/10/13 20:45:37;;;;;;;16.10;12.40;;;;;;;5.59;83.99;100987.48;229824;1196;97680;-76
2021/10/13 20:50:38;;;;;;;16.10;12.80;;;;;;;5.60;83.81;100986.53;230215;1196;97634;-75
2021/10/13 20:55:40;;;;;;;18.00;15.00;;;;;;;5.55;84.05;100987.79;230080;1196;112118;-75
2021/10/13 21:00:42;;;;;;;16.50;14.60;;;;;;;5.61;83.79;100987.15;231063;1196;97669;-71
2021/10/13 21:05:44;;;;;;;20.50;15.00;;;;;;;5.59;83.46;100986.83;230121;1196;99002;-74
2021/10/13 21:10:46;;;;;;;21.50;15.80;;;;;;;5.05;84.92;100998.85;230055;1197;108444;-73
2021/10/13 21:15:47;;;;;;;18.80;14.10;;;;;;;5.08;85.62;101000.92;230539;1197;97687;-76
2021/10/13 21:20:49;;;;;;;18.70;15.50;;;;;;;5.12;85.23;101001.66;230572;1195;97674;-76
2021/10/13 21:25:50;;;;;;;18.60;16.20;;;;;;;5.07;85.30;101004.64;230627;1195;97646;-75
2021/10/13 21:30:52;;;;;;;21.30;16.90;;;;;;;5.05;85.52;101005.50;230226;1196;97656;-75
2021/10/13 21:35:56;;;;;;;20.30;15.50;;;;;;;5.04;85.51;101003.14;230648;1197;97973;-77
2021/10/13 21:40:58;;;;;;;19.10;16.20;;;;;;;5.03;85.52;101006.69;230383;1195;103129;-74
2021/10/13 21:45:59;;;;;;;20.70;17.40;;;;;;;5.10;85.15;101002.85;230438;1187;97647;-74
2021/10/13 21:51:01;;;;;;;25.70;19.20;;;;;;;5.01;85.20;101001.77;230185;1200;99038;-74
2021/10/13 21:56:05;;;;;;;22.80;19.00;;;;;;;4.85;85.51;101014.19;230159;1199;98322;-73
2021/10/13 22:01:07;;;;;;;22.20;17.50;;;;;;;4.78;85.92;101015.66;230518;1197;97764;-73
2021/10/13 22:06:09;;;;;;;21.60;17.30;;;;;;;4.79;86.02;101009.66;230304;1195;97675;-74
2021/10/13 22:11:11;;;;;;;22.80;17.80;;;;;;;4.93;85.17;101008.06;230217;1196;98025;-74
2021/10/13 22:16:13;;;;;;;25.60;19.30;;;;;;;4.84;85.45;101009.52;230443;1196;98598;-74
2021/10/13 22:21:16;;;;;;;24.70;18.70;;;;;;;4.70;85.78;101013.91;230167;1195;102896;-75
2021/10/13 22:26:17;;;;;;;24.40;19.80;;;;;;;4.63;86.27;101012.96;230178;1196;97759;-75
2021/10/13 22:31:19;;;;;;;22.20;18.00;;;;;;;4.67;86.05;101011.80;230308;1195;97635;-74
2021/10/13 22:36:22;;;;;;;25.00;20.80;;;;;;;4.72;85.95;101016.91;230228;1194;99033;-74
2021/10/13 22:41:23;;;;;;;23.00;19.00;;;;;;;4.72;85.73;101018.88;230102;1195;97723;-74
2021/10/13 22:46:25;;;;;;;27.10;21.00;;;;;;;4.65;86.12;101018.27;230115;1187;98099;-75
2021/10/13 22:51:27;;;;;;;26.30;21.10;;;;;;;4.57;86.47;101025.21;230046;1196;111211;-76
2021/10/13 22:56:28;;;;;;;25.80;20.60;;;;;;;4.56;86.23;101025.10;230161;1196;98147;-74
2021/10/13 23:01:30;;;;;;;27.00;20.10;;;;;;;4.54;86.35;101022.11;230021;1196;97902;-72